sensor_id;sensor_type;location;lat;lon;timestamp;temperature;humidity
67555;HTU21D;54385;53.516;49.456;2024-01-30T00:01:33;20.19;20.22
67555;HTU21D;54385;53.516;49.456;2024-01-30T00:03:59;20.20;20.20
67555;HTU21D;54385;53.516;49.456;2024-01-30T00:06:26;20.20;20.19
67555;HTU21D;54385;53.516;49.456;2024-01-30T00:08:52;20.20;20.20
67555;HTU21D;54385;53.516;49.456;2024-01-30T00:11:19;20.22;20.18
67555;HTU21D;54385;53.516;49.456;2024-01-30T00:13:46;20.21;20.15
67555;HTU21D;54385;53.516;49.456;2024-01-30T00:16:25;20.21;20.16
67555;HTU21D;54385;53.516;49.456;2024-01-30T00:18:52;20.20;20.18
67555;HTU21D;54385;53.516;49.456;2024-01-30T00:21:19;20.19;20.18
67555;HTU21D;54385;53.516;49.456;2024-01-30T00:23:46;20.20;20.18
67555;HTU21D;54385;53.516;49.456;2024-01-30T00:26:13;20.20;20.17
67555;HTU21D;54385;53.516;49.456;2024-01-30T00:28:41;20.19;20.18
67555;HTU21D;54385;53.516;49.456;2024-01-30T00:31:08;20.19;20.17
67555;HTU21D;54385;53.516;49.456;2024-01-30T00:33:39;20.18;20.18
67555;HTU21D;54385;53.516;49.456;2024-01-30T00:36:06;20.17;20.18
67555;HTU21D;54385;53.516;49.456;2024-01-30T00:38:35;20.17;20.18
67555;HTU21D;54385;53.516;49.456;2024-01-30T00:41:01;20.16;20.20
67555;HTU21D;54385;53.516;49.456;2024-01-30T00:43:28;20.16;20.20
67555;HTU21D;54385;53.516;49.456;2024-01-30T00:45:56;20.16;20.18
67555;HTU21D;54385;53.516;49.456;2024-01-30T00:48:22;20.16;20.19
67555;HTU21D;54385;53.516;49.456;2024-01-30T00:50:48;20.17;20.18
67555;HTU21D;54385;53.516;49.456;2024-01-30T00:53:15;20.16;20.17
67555;HTU21D;54385;53.516;49.456;2024-01-30T00:55:42;20.15;20.17
67555;HTU21D;54385;53.516;49.456;2024-01-30T00:58:08;20.16;20.18
67555;HTU21D;54385;53.516;49.456;2024-01-30T01:00:35;20.16;20.15
67555;HTU21D;54385;53.516;49.456;2024-01-30T01:03:02;20.15;20.15
67555;HTU21D;54385;53.516;49.456;2024-01-30T01:05:28;20.16;20.13
67555;HTU21D;54385;53.516;49.456;2024-01-30T01:07:55;20.16;20.15
67555;HTU21D;54385;53.516;49.456;2024-01-30T01:10:21;20.16;20.13
67555;HTU21D;54385;53.516;49.456;2024-01-30T01:12:48;20.15;20.17
67555;HTU21D;54385;53.516;49.456;2024-01-30T01:15:15;20.14;20.16
67555;HTU21D;54385;53.516;49.456;2024-01-30T01:17:42;20.13;20.18
67555;HTU21D;54385;53.516;49.456;2024-01-30T01:20:09;20.14;20.17
67555;HTU21D;54385;53.516;49.456;2024-01-30T01:22:38;20.14;20.16
67555;HTU21D;54385;53.516;49.456;2024-01-30T01:25:08;20.14;20.16
67555;HTU21D;54385;53.516;49.456;2024-01-30T01:27:34;20.14;20.12
67555;HTU21D;54385;53.516;49.456;2024-01-30T01:30:10;20.15;20.15
67555;HTU21D;54385;53.516;49.456;2024-01-30T01:32:37;20.13;20.16
67555;HTU21D;54385;53.516;49.456;2024-01-30T01:35:04;20.14;20.14
67555;HTU21D;54385;53.516;49.456;2024-01-30T01:37:33;20.14;20.12
67555;HTU21D;54385;53.516;49.456;2024-01-30T01:40:00;20.14;20.14
67555;HTU21D;54385;53.516;49.456;2024-01-30T01:42:26;20.15;20.14
67555;HTU21D;54385;53.516;49.456;2024-01-30T01:44:53;20.14;20.12
67555;HTU21D;54385;53.516;49.456;2024-01-30T01:47:20;20.13;20.13
67555;HTU21D;54385;53.516;49.456;2024-01-30T01:49:47;20.14;20.14
67555;HTU21D;54385;53.516;49.456;2024-01-30T01:52:13;20.13;20.14
67555;HTU21D;54385;53.516;49.456;2024-01-30T01:54:40;20.13;20.15
67555;HTU21D;54385;53.516;49.456;2024-01-30T01:57:07;20.14;20.14
67555;HTU21D;54385;53.516;49.456;2024-01-30T01:59:33;20.12;20.16
67555;HTU21D;54385;53.516;49.456;2024-01-30T02:02:02;20.13;20.15
67555;HTU21D;54385;53.516;49.456;2024-01-30T02:04:29;20.13;20.15
67555;HTU21D;54385;53.516;49.456;2024-01-30T02:06:56;20.13;20.14
67555;HTU21D;54385;53.516;49.456;2024-01-30T02:09:22;20.13;20.15
67555;HTU21D;54385;53.516;49.456;2024-01-30T02:11:48;20.15;20.15
67555;HTU21D;54385;53.516;49.456;2024-01-30T02:14:15;20.13;20.17
67555;HTU21D;54385;53.516;49.456;2024-01-30T02:16:41;20.14;20.15
67555;HTU21D;54385;53.516;49.456;2024-01-30T02:19:08;20.12;20.15
67555;HTU21D;54385;53.516;49.456;2024-01-30T02:21:34;20.14;20.15
67555;HTU21D;54385;53.516;49.456;2024-01-30T02:24:01;20.13;20.15
67555;HTU21D;54385;53.516;49.456;2024-01-30T02:26:29;20.14;20.16
67555;HTU21D;54385;53.516;49.456;2024-01-30T02:28:55;20.13;20.18
67555;HTU21D;54385;53.516;49.456;2024-01-30T02:31:22;20.13;20.18
67555;HTU21D;54385;53.516;49.456;2024-01-30T02:33:48;20.12;20.18
67555;HTU21D;54385;53.516;49.456;2024-01-30T02:36:14;20.13;20.18
67555;HTU21D;54385;53.516;49.456;2024-01-30T02:38:41;20.13;20.20
67555;HTU21D;54385;53.516;49.456;2024-01-30T02:41:08;20.14;20.18
67555;HTU21D;54385;53.516;49.456;2024-01-30T02:43:34;20.13;20.19
67555;HTU21D;54385;53.516;49.456;2024-01-30T02:46:01;20.14;20.18
67555;HTU21D;54385;53.516;49.456;2024-01-30T02:48:28;20.13;20.19
67555;HTU21D;54385;53.516;49.456;2024-01-30T02:50:54;20.11;20.21
67555;HTU21D;54385;53.516;49.456;2024-01-30T02:53:20;20.12;20.21
67555;HTU21D;54385;53.516;49.456;2024-01-30T02:55:47;20.12;20.22
67555;HTU21D;54385;53.516;49.456;2024-01-30T02:58:14;20.13;20.22
67555;HTU21D;54385;53.516;49.456;2024-01-30T03:00:40;20.13;20.23
67555;HTU21D;54385;53.516;49.456;2024-01-30T03:03:07;20.12;20.23
67555;HTU21D;54385;53.516;49.456;2024-01-30T03:05:33;20.13;20.21
67555;HTU21D;54385;53.516;49.456;2024-01-30T03:08:00;20.13;20.23
67555;HTU21D;54385;53.516;49.456;2024-01-30T03:10:26;20.12;20.23
67555;HTU21D;54385;53.516;49.456;2024-01-30T03:12:52;20.12;20.50
67555;HTU21D;54385;53.516;49.456;2024-01-30T03:15:19;20.13;21.17
67555;HTU21D;54385;53.516;49.456;2024-01-30T03:17:46;20.17;21.65
67555;HTU21D;54385;53.516;49.456;2024-01-30T03:20:12;20.18;21.88
67555;HTU21D;54385;53.516;49.456;2024-01-30T03:22:39;20.19;22.41
67555;HTU21D;54385;53.516;49.456;2024-01-30T03:25:08;20.21;23.07
67555;HTU21D;54385;53.516;49.456;2024-01-30T03:27:35;20.24;23.05
67555;HTU21D;54385;53.516;49.456;2024-01-30T03:30:02;20.25;23.27
67555;HTU21D;54385;53.516;49.456;2024-01-30T03:32:29;20.26;23.45
67555;HTU21D;54385;53.516;49.456;2024-01-30T03:34:55;20.27;23.58
67555;HTU21D;54385;53.516;49.456;2024-01-30T03:37:21;20.27;23.92
67555;HTU21D;54385;53.516;49.456;2024-01-30T03:39:54;20.29;24.35
67555;HTU21D;54385;53.516;49.456;2024-01-30T03:42:21;20.30;24.76
67555;HTU21D;54385;53.516;49.456;2024-01-30T03:44:48;20.34;25.09
67555;HTU21D;54385;53.516;49.456;2024-01-30T03:47:18;20.37;25.71
67555;HTU21D;54385;53.516;49.456;2024-01-30T03:49:48;20.44;26.04
67555;HTU21D;54385;53.516;49.456;2024-01-30T03:52:17;20.49;26.33
67555;HTU21D;54385;53.516;49.456;2024-01-30T03:54:43;20.51;26.31
67555;HTU21D;54385;53.516;49.456;2024-01-30T03:57:10;20.55;26.44
67555;HTU21D;54385;53.516;49.456;2024-01-30T03:59:38;20.57;26.61
67555;HTU21D;54385;53.516;49.456;2024-01-30T04:02:10;20.61;26.80
67555;HTU21D;54385;53.516;49.456;2024-01-30T04:04:40;20.62;26.80
67555;HTU21D;54385;53.516;49.456;2024-01-30T04:07:07;20.64;26.87
67555;HTU21D;54385;53.516;49.456;2024-01-30T04:09:38;20.69;27.00
67555;HTU21D;54385;53.516;49.456;2024-01-30T04:12:14;20.69;26.79
67555;HTU21D;54385;53.516;49.456;2024-01-30T04:14:41;20.69;26.64
67555;HTU21D;54385;53.516;49.456;2024-01-30T04:17:07;20.70;26.38
67555;HTU21D;54385;53.516;49.456;2024-01-30T04:19:37;20.69;26.65
67555;HTU21D;54385;53.516;49.456;2024-01-30T04:22:04;20.72;26.53
67555;HTU21D;54385;53.516;49.456;2024-01-30T04:24:33;20.72;26.62
67555;HTU21D;54385;53.516;49.456;2024-01-30T04:27:00;20.73;26.72
67555;HTU21D;54385;53.516;49.456;2024-01-30T04:29:29;20.75;26.94
67555;HTU21D;54385;53.516;49.456;2024-01-30T04:31:59;20.77;27.22
67555;HTU21D;54385;53.516;49.456;2024-01-30T04:34:27;20.78;27.13
67555;HTU21D;54385;53.516;49.456;2024-01-30T04:36:53;20.80;27.16
67555;HTU21D;54385;53.516;49.456;2024-01-30T04:39:22;20.83;27.48
67555;HTU21D;54385;53.516;49.456;2024-01-30T04:41:52;20.85;28.03
67555;HTU21D;54385;53.516;49.456;2024-01-30T04:44:22;20.87;27.96
67555;HTU21D;54385;53.516;49.456;2024-01-30T04:46:50;20.91;28.06
67555;HTU21D;54385;53.516;49.456;2024-01-30T04:49:18;20.93;27.87
67555;HTU21D;54385;53.516;49.456;2024-01-30T04:51:48;20.94;27.86
67555;HTU21D;54385;53.516;49.456;2024-01-30T04:54:15;20.93;27.61
67555;HTU21D;54385;53.516;49.456;2024-01-30T04:56:44;20.94;27.52
67555;HTU21D;54385;53.516;49.456;2024-01-30T04:59:12;20.95;27.41
67555;HTU21D;54385;53.516;49.456;2024-01-30T05:01:44;20.94;27.36
67555;HTU21D;54385;53.516;49.456;2024-01-30T05:04:18;20.92;27.20
67555;HTU21D;54385;53.516;49.456;2024-01-30T05:06:46;20.92;27.10
67555;HTU21D;54385;53.516;49.456;2024-01-30T05:09:22;20.93;27.02
67555;HTU21D;54385;53.516;49.456;2024-01-30T05:11:57;20.92;26.88
67555;HTU21D;54385;53.516;49.456;2024-01-30T05:14:30;20.90;26.78
67555;HTU21D;54385;53.516;49.456;2024-01-30T05:17:00;20.90;26.66
67555;HTU21D;54385;53.516;49.456;2024-01-30T05:19:29;20.91;26.58
67555;HTU21D;54385;53.516;49.456;2024-01-30T05:22:00;20.89;26.49
67555;HTU21D;54385;53.516;49.456;2024-01-30T05:24:28;20.90;26.38
67555;HTU21D;54385;53.516;49.456;2024-01-30T05:26:54;20.90;26.29
67555;HTU21D;54385;53.516;49.456;2024-01-30T05:29:22;20.89;26.18
67555;HTU21D;54385;53.516;49.456;2024-01-30T05:31:52;20.89;26.08
67555;HTU21D;54385;53.516;49.456;2024-01-30T05:34:19;20.90;26.01
67555;HTU21D;54385;53.516;49.456;2024-01-30T05:36:49;20.89;25.90
67555;HTU21D;54385;53.516;49.456;2024-01-30T05:39:17;20.88;25.81
67555;HTU21D;54385;53.516;49.456;2024-01-30T05:41:47;20.89;25.75
67555;HTU21D;54385;53.516;49.456;2024-01-30T05:44:21;20.87;25.66
67555;HTU21D;54385;53.516;49.456;2024-01-30T05:46:48;20.87;25.62
67555;HTU21D;54385;53.516;49.456;2024-01-30T05:49:17;20.87;25.59
67555;HTU21D;54385;53.516;49.456;2024-01-30T05:51:44;20.89;25.54
67555;HTU21D;54385;53.516;49.456;2024-01-30T05:54:14;20.89;25.43
67555;HTU21D;54385;53.516;49.456;2024-01-30T05:56:44;20.93;25.32
67555;HTU21D;54385;53.516;49.456;2024-01-30T05:59:12;20.99;25.20
67555;HTU21D;54385;53.516;49.456;2024-01-30T06:01:47;21.05;25.05
67555;HTU21D;54385;53.516;49.456;2024-01-30T06:04:15;21.10;24.91
67555;HTU21D;54385;53.516;49.456;2024-01-30T06:06:42;21.15;24.77
67555;HTU21D;54385;53.516;49.456;2024-01-30T06:09:09;21.18;24.66
67555;HTU21D;54385;53.516;49.456;2024-01-30T06:11:36;21.20;24.55
67555;HTU21D;54385;53.516;49.456;2024-01-30T06:14:03;21.20;24.47
67555;HTU21D;54385;53.516;49.456;2024-01-30T06:16:30;21.17;24.44
67555;HTU21D;54385;53.516;49.456;2024-01-30T06:19:12;21.15;24.36
67555;HTU21D;54385;53.516;49.456;2024-01-30T06:21:41;21.16;24.36
67555;HTU21D;54385;53.516;49.456;2024-01-30T06:24:08;21.15;24.37
67555;HTU21D;54385;53.516;49.456;2024-01-30T06:26:38;21.14;24.31
67555;HTU21D;54385;53.516;49.456;2024-01-30T06:29:19;21.15;24.24
67555;HTU21D;54385;53.516;49.456;2024-01-30T06:32:12;21.17;24.15
67555;HTU21D;54385;53.516;49.456;2024-01-30T06:34:40;21.18;24.06
67555;HTU21D;54385;53.516;49.456;2024-01-30T06:37:16;21.18;24.07
67555;HTU21D;54385;53.516;49.456;2024-01-30T06:39:55;21.19;24.00
67555;HTU21D;54385;53.516;49.456;2024-01-30T06:42:28;21.20;24.01
67555;HTU21D;54385;53.516;49.456;2024-01-30T06:45:01;21.18;23.98
67555;HTU21D;54385;53.516;49.456;2024-01-30T06:47:46;21.17;23.96
67555;HTU21D;54385;53.516;49.456;2024-01-30T06:50:16;21.17;23.93
67555;HTU21D;54385;53.516;49.456;2024-01-30T06:52:51;21.19;23.88
67555;HTU21D;54385;53.516;49.456;2024-01-30T06:55:25;21.20;23.82
67555;HTU21D;54385;53.516;49.456;2024-01-30T06:57:53;21.20;23.82
67555;HTU21D;54385;53.516;49.456;2024-01-30T07:00:22;21.21;23.78
67555;HTU21D;54385;53.516;49.456;2024-01-30T07:02:52;21.20;23.76
67555;HTU21D;54385;53.516;49.456;2024-01-30T07:05:23;21.21;23.75
67555;HTU21D;54385;53.516;49.456;2024-01-30T07:08:03;21.21;23.69
67555;HTU21D;54385;53.516;49.456;2024-01-30T07:10:33;21.24;23.63
67555;HTU21D;54385;53.516;49.456;2024-01-30T07:13:24;21.30;23.53
67555;HTU21D;54385;53.516;49.456;2024-01-30T07:15:57;21.33;23.43
67555;HTU21D;54385;53.516;49.456;2024-01-30T07:18:33;21.36;23.39
67555;HTU21D;54385;53.516;49.456;2024-01-30T07:21:04;21.39;23.31
67555;HTU21D;54385;53.516;49.456;2024-01-30T07:23:37;21.40;23.26
67555;HTU21D;54385;53.516;49.456;2024-01-30T07:29:50;21.46;23.14
67555;HTU21D;54385;53.516;49.456;2024-01-30T07:32:19;21.45;23.11
67555;HTU21D;54385;53.516;49.456;2024-01-30T07:34:50;21.44;23.11
67555;HTU21D;54385;53.516;49.456;2024-01-30T07:37:37;21.44;23.02
67555;HTU21D;54385;53.516;49.456;2024-01-30T07:40:06;21.44;23.07
67555;HTU21D;54385;53.516;49.456;2024-01-30T07:42:36;21.45;23.01
67555;HTU21D;54385;53.516;49.456;2024-01-30T07:45:06;21.42;23.05
67555;HTU21D;54385;53.516;49.456;2024-01-30T07:47:45;21.39;23.08
67555;HTU21D;54385;53.516;49.456;2024-01-30T07:50:16;21.35;23.11
67555;HTU21D;54385;53.516;49.456;2024-01-30T07:53:00;21.31;23.14
67555;HTU21D;54385;53.516;49.456;2024-01-30T07:55:41;21.29;23.18
67555;HTU21D;54385;53.516;49.456;2024-01-30T07:58:13;21.31;23.17
67555;HTU21D;54385;53.516;49.456;2024-01-30T08:01:03;21.35;23.08
67555;HTU21D;54385;53.516;49.456;2024-01-30T08:03:34;21.42;23.00
67555;HTU21D;54385;53.516;49.456;2024-01-30T08:06:04;21.44;22.91
67555;HTU21D;54385;53.516;49.456;2024-01-30T08:08:31;21.47;22.88
67555;HTU21D;54385;53.516;49.456;2024-01-30T08:11:28;21.48;22.83
67555;HTU21D;54385;53.516;49.456;2024-01-30T08:14:11;21.49;22.82
67555;HTU21D;54385;53.516;49.456;2024-01-30T08:16:43;21.52;22.80
67555;HTU21D;54385;53.516;49.456;2024-01-30T08:19:17;21.53;22.73
67555;HTU21D;54385;53.516;49.456;2024-01-30T08:21:49;21.54;22.72
67555;HTU21D;54385;53.516;49.456;2024-01-30T08:24:21;21.55;22.69
67555;HTU21D;54385;53.516;49.456;2024-01-30T08:27:02;21.59;22.66
67555;HTU21D;54385;53.516;49.456;2024-01-30T08:30:18;21.61;22.58
67555;HTU21D;54385;53.516;49.456;2024-01-30T08:33:24;21.60;22.63
67555;HTU21D;54385;53.516;49.456;2024-01-30T08:36:03;21.59;22.63
67555;HTU21D;54385;53.516;49.456;2024-01-30T08:38:35;21.59;22.59
67555;HTU21D;54385;53.516;49.456;2024-01-30T08:41:11;21.59;22.58
67555;HTU21D;54385;53.516;49.456;2024-01-30T08:43:46;21.63;22.52
67555;HTU21D;54385;53.516;49.456;2024-01-30T08:46:21;21.69;22.43
67555;HTU21D;54385;53.516;49.456;2024-01-30T08:48:55;21.79;22.32
67555;HTU21D;54385;53.516;49.456;2024-01-30T08:51:23;21.89;22.20
67555;HTU21D;54385;53.516;49.456;2024-01-30T08:53:49;21.96;22.06
67555;HTU21D;54385;53.516;49.456;2024-01-30T08:56:43;22.01;22.02
67555;HTU21D;54385;53.516;49.456;2024-01-30T08:59:10;22.03;21.98
67555;HTU21D;54385;53.516;49.456;2024-01-30T09:01:37;22.05;21.97
67555;HTU21D;54385;53.516;49.456;2024-01-30T09:04:10;22.03;21.92
67555;HTU21D;54385;53.516;49.456;2024-01-30T09:06:36;21.99;22.01
67555;HTU21D;54385;53.516;49.456;2024-01-30T09:09:05;22.04;21.98
67555;HTU21D;54385;53.516;49.456;2024-01-30T09:11:35;22.17;21.82
67555;HTU21D;54385;53.516;49.456;2024-01-30T09:14:17;22.32;21.59
67555;HTU21D;54385;53.516;49.456;2024-01-30T09:16:47;22.37;21.51
67555;HTU21D;54385;53.516;49.456;2024-01-30T09:19:25;22.36;21.53
67555;HTU21D;54385;53.516;49.456;2024-01-30T09:21:59;22.38;21.47
67555;HTU21D;54385;53.516;49.456;2024-01-30T09:24:36;22.41;21.41
67555;HTU21D;54385;53.516;49.456;2024-01-30T09:27:05;22.44;21.37
67555;HTU21D;54385;53.516;49.456;2024-01-30T09:29:38;22.44;21.41
67555;HTU21D;54385;53.516;49.456;2024-01-30T09:32:15;22.42;21.34
67555;HTU21D;54385;53.516;49.456;2024-01-30T09:34:44;22.39;21.44
67555;HTU21D;54385;53.516;49.456;2024-01-30T09:37:16;22.35;21.50
67555;HTU21D;54385;53.516;49.456;2024-01-30T09:39:50;22.27;21.57
67555;HTU21D;54385;53.516;49.456;2024-01-30T09:43:12;22.18;21.83
67555;HTU21D;54385;53.516;49.456;2024-01-30T09:45:51;22.18;21.81
67555;HTU21D;54385;53.516;49.456;2024-01-30T09:48:22;22.23;21.74
67555;HTU21D;54385;53.516;49.456;2024-01-30T09:50:56;22.22;21.74
67555;HTU21D;54385;53.516;49.456;2024-01-30T09:53:50;22.18;21.79
67555;HTU21D;54385;53.516;49.456;2024-01-30T09:56:33;22.08;21.89
67555;HTU21D;54385;53.516;49.456;2024-01-30T10:02:41;22.12;21.92
67555;HTU21D;54385;53.516;49.456;2024-01-30T10:08:17;22.21;21.79
67555;HTU21D;54385;53.516;49.456;2024-01-30T10:11:08;22.14;21.84
67555;HTU21D;54385;53.516;49.456;2024-01-30T10:14:27;22.08;21.99
67555;HTU21D;54385;53.516;49.456;2024-01-30T10:17:01;22.07;21.98
67555;HTU21D;54385;53.516;49.456;2024-01-30T10:19:31;22.01;22.05
67555;HTU21D;54385;53.516;49.456;2024-01-30T10:22:02;21.98;22.08
67555;HTU21D;54385;53.516;49.456;2024-01-30T10:24:36;21.93;22.15
67555;HTU21D;54385;53.516;49.456;2024-01-30T10:27:26;21.87;22.24
67555;HTU21D;54385;53.516;49.456;2024-01-30T10:29:53;21.79;22.31
67555;HTU21D;54385;53.516;49.456;2024-01-30T10:32:23;21.73;22.44
67555;HTU21D;54385;53.516;49.456;2024-01-30T10:34:49;21.66;22.50
67555;HTU21D;54385;53.516;49.456;2024-01-30T10:37:21;21.64;22.57
67555;HTU21D;54385;53.516;49.456;2024-01-30T10:39:53;21.62;22.66
67555;HTU21D;54385;53.516;49.456;2024-01-30T10:42:25;21.59;22.79
67555;HTU21D;54385;53.516;49.456;2024-01-30T10:45:09;21.59;22.92
67555;HTU21D;54385;53.516;49.456;2024-01-30T10:47:36;21.61;22.81
67555;HTU21D;54385;53.516;49.456;2024-01-30T10:50:47;21.66;22.72
67555;HTU21D;54385;53.516;49.456;2024-01-30T10:53:00;21.69;22.65
67555;HTU21D;54385;53.516;49.456;2024-01-30T10:55:40;21.70;22.66
67555;HTU21D;54385;53.516;49.456;2024-01-30T10:58:41;21.72;22.63
67555;HTU21D;54385;53.516;49.456;2024-01-30T11:01:08;21.73;22.61
67555;HTU21D;54385;53.516;49.456;2024-01-30T11:03:38;21.74;22.55
67555;HTU21D;54385;53.516;49.456;2024-01-30T11:06:13;21.76;22.53
67555;HTU21D;54385;53.516;49.456;2024-01-30T11:08:45;21.75;22.53
67555;HTU21D;54385;53.516;49.456;2024-01-30T11:11:12;21.74;22.59
67555;HTU21D;54385;53.516;49.456;2024-01-30T11:13:40;21.73;22.55
67555;HTU21D;54385;53.516;49.456;2024-01-30T11:16:15;21.72;22.58
67555;HTU21D;54385;53.516;49.456;2024-01-30T11:18:42;21.70;22.57
67555;HTU21D;54385;53.516;49.456;2024-01-30T11:21:13;21.67;22.67
67555;HTU21D;54385;53.516;49.456;2024-01-30T11:23:46;21.65;22.66
67555;HTU21D;54385;53.516;49.456;2024-01-30T11:26:12;21.61;22.75
67555;HTU21D;54385;53.516;49.456;2024-01-30T11:28:55;21.58;22.80
67555;HTU21D;54385;53.516;49.456;2024-01-30T11:31:22;21.58;22.79
67555;HTU21D;54385;53.516;49.456;2024-01-30T11:33:55;21.55;22.87
67555;HTU21D;54385;53.516;49.456;2024-01-30T11:36:26;21.55;22.82
67555;HTU21D;54385;53.516;49.456;2024-01-30T11:38:54;21.55;22.82
67555;HTU21D;54385;53.516;49.456;2024-01-30T11:41:34;21.54;22.84
67555;HTU21D;54385;53.516;49.456;2024-01-30T11:44:10;21.51;22.88
67555;HTU21D;54385;53.516;49.456;2024-01-30T11:46:51;21.48;22.90
67555;HTU21D;54385;53.516;49.456;2024-01-30T11:49:18;21.49;22.92
67555;HTU21D;54385;53.516;49.456;2024-01-30T11:51:48;21.50;22.92
67555;HTU21D;54385;53.516;49.456;2024-01-30T11:54:22;21.51;22.85
67555;HTU21D;54385;53.516;49.456;2024-01-30T11:56:52;21.48;22.88
67555;HTU21D;54385;53.516;49.456;2024-01-30T11:59:19;21.45;22.92
67555;HTU21D;54385;53.516;49.456;2024-01-30T12:01:51;21.38;23.08
67555;HTU21D;54385;53.516;49.456;2024-01-30T12:04:22;21.36;23.04
67555;HTU21D;54385;53.516;49.456;2024-01-30T12:07:05;21.34;23.06
67555;HTU21D;54385;53.516;49.456;2024-01-30T12:09:59;21.31;23.11
67555;HTU21D;54385;53.516;49.456;2024-01-30T12:12:32;21.31;23.12
67555;HTU21D;54385;53.516;49.456;2024-01-30T12:15:07;21.29;23.13
67555;HTU21D;54385;53.516;49.456;2024-01-30T12:18:07;21.28;23.16
67555;HTU21D;54385;53.516;49.456;2024-01-30T12:20:34;21.23;23.17
67555;HTU21D;54385;53.516;49.456;2024-01-30T12:23:01;21.20;23.21
67555;HTU21D;54385;53.516;49.456;2024-01-30T12:25:27;21.16;23.27
67555;HTU21D;54385;53.516;49.456;2024-01-30T12:27:57;21.10;23.35
67555;HTU21D;54385;53.516;49.456;2024-01-30T12:30:32;21.04;23.46
67555;HTU21D;54385;53.516;49.456;2024-01-30T12:33:04;21.00;23.45
67555;HTU21D;54385;53.516;49.456;2024-01-30T12:35:46;20.99;23.54
67555;HTU21D;54385;53.516;49.456;2024-01-30T12:38:18;20.95;23.50
67555;HTU21D;54385;53.516;49.456;2024-01-30T12:40:54;20.92;23.60
67555;HTU21D;54385;53.516;49.456;2024-01-30T12:43:25;20.89;23.63
67555;HTU21D;54385;53.516;49.456;2024-01-30T12:45:55;20.85;23.67
67555;HTU21D;54385;53.516;49.456;2024-01-30T12:48:34;20.79;23.76
67555;HTU21D;54385;53.516;49.456;2024-01-30T12:51:11;20.79;23.75
67555;HTU21D;54385;53.516;49.456;2024-01-30T12:53:38;20.76;23.75
67555;HTU21D;54385;53.516;49.456;2024-01-30T12:56:08;20.72;23.82
67555;HTU21D;54385;53.516;49.456;2024-01-30T12:58:35;20.70;23.82
67555;HTU21D;54385;53.516;49.456;2024-01-30T13:01:03;20.68;23.86
67555;HTU21D;54385;53.516;49.456;2024-01-30T13:03:38;20.65;23.88
67555;HTU21D;54385;53.516;49.456;2024-01-30T13:06:06;20.64;23.91
67555;HTU21D;54385;53.516;49.456;2024-01-30T13:08:46;20.60;23.95
67555;HTU21D;54385;53.516;49.456;2024-01-30T13:11:14;20.59;23.96
67555;HTU21D;54385;53.516;49.456;2024-01-30T13:13:50;20.57;24.07
67555;HTU21D;54385;53.516;49.456;2024-01-30T13:16:27;20.56;24.00
67555;HTU21D;54385;53.516;49.456;2024-01-30T13:18:55;20.55;23.98
67555;HTU21D;54385;53.516;49.456;2024-01-30T13:21:24;20.54;24.04
67555;HTU21D;54385;53.516;49.456;2024-01-30T13:23:54;20.50;24.05
67555;HTU21D;54385;53.516;49.456;2024-01-30T13:26:21;20.46;24.08
67555;HTU21D;54385;53.516;49.456;2024-01-30T13:28:51;20.44;24.10
67555;HTU21D;54385;53.516;49.456;2024-01-30T13:31:18;20.44;24.11
67555;HTU21D;54385;53.516;49.456;2024-01-30T13:34:06;20.42;24.13
67555;HTU21D;54385;53.516;49.456;2024-01-30T13:36:33;20.42;24.13
67555;HTU21D;54385;53.516;49.456;2024-01-30T13:39:01;20.42;24.11
67555;HTU21D;54385;53.516;49.456;2024-01-30T13:41:29;20.42;24.11
67555;HTU21D;54385;53.516;49.456;2024-01-30T13:43:56;20.42;24.13
67555;HTU21D;54385;53.516;49.456;2024-01-30T13:46:26;20.42;24.09
67555;HTU21D;54385;53.516;49.456;2024-01-30T13:48:53;20.42;24.08
67555;HTU21D;54385;53.516;49.456;2024-01-30T13:51:19;20.42;24.08
67555;HTU21D;54385;53.516;49.456;2024-01-30T13:53:46;20.42;24.06
67555;HTU21D;54385;53.516;49.456;2024-01-30T13:56:14;20.41;24.09
67555;HTU21D;54385;53.516;49.456;2024-01-30T13:58:40;20.42;24.04
67555;HTU21D;54385;53.516;49.456;2024-01-30T14:01:07;20.42;24.04
67555;HTU21D;54385;53.516;49.456;2024-01-30T14:03:36;20.39;24.05
67555;HTU21D;54385;53.516;49.456;2024-01-30T14:06:03;20.40;24.07
67555;HTU21D;54385;53.516;49.456;2024-01-30T14:08:39;20.37;24.06
67555;HTU21D;54385;53.516;49.456;2024-01-30T14:11:09;20.36;24.09
67555;HTU21D;54385;53.516;49.456;2024-01-30T14:13:36;20.34;24.11
67555;HTU21D;54385;53.516;49.456;2024-01-30T14:16:08;20.34;24.11
67555;HTU21D;54385;53.516;49.456;2024-01-30T14:18:36;20.33;24.11
67555;HTU21D;54385;53.516;49.456;2024-01-30T14:21:03;20.31;24.10
67555;HTU21D;54385;53.516;49.456;2024-01-30T14:23:29;20.30;24.09
67555;HTU21D;54385;53.516;49.456;2024-01-30T14:25:56;20.30;24.11
67555;HTU21D;54385;53.516;49.456;2024-01-30T14:28:35;20.29;24.10
67555;HTU21D;54385;53.516;49.456;2024-01-30T14:31:03;20.29;24.08
67555;HTU21D;54385;53.516;49.456;2024-01-30T14:33:40;20.28;24.08
67555;HTU21D;54385;53.516;49.456;2024-01-30T14:36:07;20.28;24.07
67555;HTU21D;54385;53.516;49.456;2024-01-30T14:38:35;20.29;24.05
67555;HTU21D;54385;53.516;49.456;2024-01-30T14:41:04;20.28;24.04
67555;HTU21D;54385;53.516;49.456;2024-01-30T14:43:41;20.28;24.04
67555;HTU21D;54385;53.516;49.456;2024-01-30T14:46:14;20.28;24.03
67555;HTU21D;54385;53.516;49.456;2024-01-30T14:48:41;20.28;24.01
67555;HTU21D;54385;53.516;49.456;2024-01-30T14:51:18;20.24;24.01
67555;HTU21D;54385;53.516;49.456;2024-01-30T14:53:45;20.26;24.01
67555;HTU21D;54385;53.516;49.456;2024-01-30T14:56:18;20.26;24.01
67555;HTU21D;54385;53.516;49.456;2024-01-30T14:58:47;20.24;23.99
67555;HTU21D;54385;53.516;49.456;2024-01-30T15:01:17;20.22;23.98
67555;HTU21D;54385;53.516;49.456;2024-01-30T15:03:45;20.22;23.98
67555;HTU21D;54385;53.516;49.456;2024-01-30T15:06:13;20.22;23.98
67555;HTU21D;54385;53.516;49.456;2024-01-30T15:08:43;20.21;23.96
67555;HTU21D;54385;53.516;49.456;2024-01-30T15:11:10;20.22;23.93
67555;HTU21D;54385;53.516;49.456;2024-01-30T15:13:41;20.21;23.92
67555;HTU21D;54385;53.516;49.456;2024-01-30T15:16:15;20.20;23.92
67555;HTU21D;54385;53.516;49.456;2024-01-30T15:19:23;20.20;23.91
67555;HTU21D;54385;53.516;49.456;2024-01-30T15:21:50;20.20;23.88
67555;HTU21D;54385;53.516;49.456;2024-01-30T15:24:17;20.20;23.89
67555;HTU21D;54385;53.516;49.456;2024-01-30T15:26:46;20.20;23.87
67555;HTU21D;54385;53.516;49.456;2024-01-30T15:29:13;20.19;23.88
67555;HTU21D;54385;53.516;49.456;2024-01-30T15:31:47;20.19;23.85
67555;HTU21D;54385;53.516;49.456;2024-01-30T15:34:20;20.19;23.85
67555;HTU21D;54385;53.516;49.456;2024-01-30T15:36:49;20.19;23.83
67555;HTU21D;54385;53.516;49.456;2024-01-30T15:39:19;20.19;23.82